ASP655 CYVR-KSDL
Flight info
| Callsign | ASP655 |
|---|---|
| Flight time | N/A |
| Altitude | 45000 |
| Route | YVR J5 SEA DCT LTJ DCT KOATA DCT WINEN DCT FLG DSERT2 |
| Aircraft | E55P/M-SBDGRW/LB2 |
Departure
| Time | 2026-05-06 09:57 |
|---|---|
| Airport | Vancouver International Airport (CYVR) |
Arrival
| Time | N/A |
|---|---|
| Airport | Scottsdale Airport (KSDL) |
| Time | Latitude | Longitude | Altitude | Speed | Heading |
|---|---|---|---|---|---|
| 2026-05-06 09:20 | 49.18415 | -123.17737 | 11 ft | 0 kts | 189° |
| 2026-05-06 09:51 | 49.18410 | -123.17735 | 11 ft | 2 kts | 151° |
| 2026-05-06 09:51 | 49.18409 | -123.17694 | 11 ft | 6 kts | 70° |
| 2026-05-06 09:51 | 49.18409 | -123.17628 | 11 ft | 7 kts | 81° |
| 2026-05-06 09:52 | 49.18446 | -123.17591 | 11 ft | 7 kts | 327° |
| 2026-05-06 09:52 | 49.18460 | -123.17675 | 11 ft | 10 kts | 280° |
| 2026-05-06 09:52 | 49.18477 | -123.17821 | 11 ft | 16 kts | 280° |
| 2026-05-06 09:52 | 49.18499 | -123.18012 | 14 ft | 18 kts | 280° |
| 2026-05-06 09:53 | 49.18521 | -123.18205 | 14 ft | 18 kts | 280° |
| 2026-05-06 09:53 | 49.18544 | -123.18405 | 14 ft | 19 kts | 280° |
| 2026-05-06 09:53 | 49.18569 | -123.18625 | 11 ft | 22 kts | 280° |
| 2026-05-06 09:53 | 49.18595 | -123.18858 | 11 ft | 22 kts | 280° |
| 2026-05-06 09:54 | 49.18622 | -123.19090 | 11 ft | 22 kts | 280° |
| 2026-05-06 09:54 | 49.18648 | -123.19324 | 11 ft | 22 kts | 280° |
| 2026-05-06 09:54 | 49.18675 | -123.19557 | 11 ft | 22 kts | 280° |
| 2026-05-06 09:54 | 49.18702 | -123.19791 | 11 ft | 22 kts | 279° |
| 2026-05-06 09:55 | 49.18728 | -123.20016 | 14 ft | 20 kts | 281° |
| 2026-05-06 09:55 | 49.18752 | -123.20232 | 14 ft | 19 kts | 281° |
| 2026-05-06 09:55 | 49.18773 | -123.20412 | 14 ft | 14 kts | 279° |
| 2026-05-06 09:55 | 49.18807 | -123.20520 | 14 ft | 11 kts | 347° |
| 2026-05-06 09:56 | 49.18887 | -123.20506 | 15 ft | 11 kts | 11° |
| 2026-05-06 09:56 | 49.18954 | -123.20483 | 17 ft | 9 kts | 21° |
| 2026-05-06 09:56 | 49.18966 | -123.20396 | 17 ft | 11 kts | 101° |
| 2026-05-06 09:56 | 49.18917 | -123.19964 | 14 ft | 78 kts | 100° |
| 2026-05-06 09:57 | 49.18789 | -123.18821 | 107 ft | 127 kts | 99° |
| 2026-05-06 09:57 | 49.18631 | -123.17460 | 697 ft | 135 kts | 104° |
| 2026-05-06 09:57 | 49.18138 | -123.16065 | 1057 ft | 166 kts | 124° |
| 2026-05-06 09:57 | 49.17406 | -123.14583 | 1605 ft | 184 kts | 125° |
| 2026-05-06 09:58 | 49.16653 | -123.13004 | 2318 ft | 193 kts | 125° |
| 2026-05-06 09:58 | 49.15839 | -123.11298 | 3011 ft | 204 kts | 125° |
| 2026-05-06 09:58 | 49.14970 | -123.09531 | 3627 ft | 219 kts | 126° |
| 2026-05-06 09:58 | 49.14009 | -123.07650 | 4300 ft | 231 kts | 133° |
| 2026-05-06 09:59 | 49.12650 | -123.06342 | 4986 ft | 242 kts | 166° |
| 2026-05-06 09:59 | 49.11005 | -123.06461 | 5840 ft | 240 kts | 203° |
| 2026-05-06 09:59 | 49.09711 | -123.08004 | 6507 ft | 246 kts | 236° |
| 2026-05-06 09:59 | 49.09022 | -123.10350 | 7391 ft | 243 kts | 253° |
| 2026-05-06 10:00 | 49.08374 | -123.12696 | 8199 ft | 246 kts | 238° |
| 2026-05-06 10:00 | 49.07023 | -123.14276 | 8871 ft | 260 kts | 200° |
| 2026-05-06 10:00 | 49.05227 | -123.14301 | 9577 ft | 271 kts | 164° |
| 2026-05-06 10:00 | 49.03589 | -123.12951 | 10301 ft | 275 kts | 155° |
| 2026-05-06 10:01 | 49.01800 | -123.11834 | 11041 ft | 277 kts | 161° |
| 2026-05-06 10:01 | 48.99974 | -123.10819 | 11773 ft | 280 kts | 163° |
| 2026-05-06 10:01 | 48.98144 | -123.09847 | 12484 ft | 283 kts | 163° |
| 2026-05-06 10:01 | 48.96285 | -123.08866 | 13200 ft | 286 kts | 164° |